AirNav   Phillips 66 Aviation Fuel
 
 1595 users online  

9NJ8 High Meadow Farms Airport
Hope, New Jersey, USA

GOING TO HOPE?


FAA INFORMATION EFFECTIVE 12 SEPTEMBER 2019

Location

FAA Identifier: 9NJ8
Lat/Long: 40-53-45.3530N 074-59-58.6220W
40-53.755883N 074-59.977033W
40.8959314,-74.9996172
(estimated)
Elevation: 630 ft. / 192 m (estimated)
Variation: 12W (1985)
From city: 2 miles SW of HOPE, NJ
Time zone: UTC -4 (UTC -5 during Standard Time)
Zip code: 07825

Airport Operations

Airport use: Private use. Permission required prior to landing
Activation date: 03/1978
Control tower: no
ARTCC: NEW YORK CENTER
FSS: MILLVILLE FLIGHT SERVICE STATION
Attendance: UNATNDD
Wind indicator: yes
Segmented circle: no

Nearby radio navigation aids

VOR radial/distance  VOR name  Freq  Var
STWr236/8.4STILLWATER VOR/DME109.6011W
BWZr317/10.0BROADWAY VOR/DME114.2011W
SBJr338/22.1SOLBERG VOR/DME112.9010W
FJCr074/23.0ALLENTOWN VORTAC117.5010W
SAXr255/23.3SPARTA VORTAC115.7011W
HUOr222/35.9HUGUENOT VOR/DME116.1011W
ETXr068/36.4EAST TEXAS VOR/DME110.2009W
LVZr136/38.5WILKES-BARRE VORTAC111.6010W
ARDr004/38.8YARDLEY VOR/DME108.2010W

 
NDB name  Hdg/Dist  Freq  Var  ID
CHATHAM303/27.525413WCAT -.-. .- -

Airport Services

Runway Information

Runway 13/31

Dimensions: 1850 x 100 ft. / 564 x 30 m
Surface: turf
RUNWAY 13  RUNWAY 31
Traffic pattern: rightleft

Airport Ownership and Management from official FAA records

Ownership: Privately-owned
Owner: TIMOTHY LEE PRUDEN
69 LOVE LANE
NETCONG, NJ 07857
Phone 973-347-5567

Airport Operational Statistics

Aircraft based on the field: 1
Helicopters: 1
    

Additional Remarks

FOR CD CTC ALLENTOWN APCH AT 800-728-6322.

Instrument Procedures

There are no published instrument procedures at 9NJ8.

Some nearby airports with instrument procedures:

1N7 - Blairstown Airport (5 nm N)
N53 - Stroudsburg-Pocono Airport (11 nm NW)
12N - Aeroflex-Andover Airport (14 nm NE)
N43 - Braden Airpark (14 nm SW)
N85 - Alexandria Airport (19 nm S)
N40 - Sky Manor Airport (20 nm S)
 
Loc | Ops | Rwys | IFR | FBO | Links
Com | Nav | Svcs | Stats | Notes
Area around 9NJ8 (High Meadow Farms Airport)
 
Road maps at: MapQuest Bing Google
 
Aerial photo
No photo
 
Sectional chart

 
Airport distance calculator
Flying to High Meadow Farms Airport? Find the distance to fly.

From to 9NJ8

Sunrise and sunset
Times for 19-Sep-2019
 Local
(UTC-4)
 Zulu
(UTC)
Morning civil twilight06:1810:18
Sunrise06:4510:45
Sunset19:0223:02
Evening civil twilight19:3023:30

Current date and time
Zulu (UTC)  19-Sep-2019 20:07:42
Local (UTC-4)  19-Sep-2019 16:07:42
 
METAR
K12N 
14nm NE 
191954Z AUTO 00000KT 21/04 A3031 RMK AO1 SLP263 T02110044
KMPO 
22nm NW 
191953Z AUTO VRB05KT 10SM CLR 18/01 A3031 RMK AO2 SLP269 T01830011
KSMQ 
23nm SE 
ASOS 120.60 908-722-2139
191953Z AUTO 19003KT 10SM CLR 21/04 A3029 RMK AO2 SLP256 T02110044
KFWN 
25nm NE 
191953Z AUTO VRB04KT 10SM CLR 22/02 A3030 RMK AO2 RAB47E51 SLP260 P0000 T02170017
KABE 
25nm SW 
191951Z 00000KT 10SM CLR 22/02 A3031 RMK AO2 SLP262 T02170017
KMMU 
27nm E 
191945Z 00000KT 10SM SKC 21/03 A3031
TAF
KABE 
25nm SW 
191733Z 1918/2018 VRB04KT P6SM SKC FM192200 VRB03KT P6SM FEW200
NOTAMs
Click for the latest NOTAMs
NOTAMs are issued by the DoD/FAA and will open in a separate window not controlled by AirNav.

 

 
 

Would you like to see your business listed on this page?

 If your business provides an interesting product or service to pilots, flight crews, aircraft, or users of the High Meadow Farms Airport, you should consider listing it here.  To start the listing process, click on the button below
 
Add a business
 

Other Pages about High Meadow Farms Airport

Update a link
 
Copyright © AirNav, LLC. All rights reserved. Privacy Policy  Contact